Dillon, Colorado
Current Conditions -  °F | °C
As of 6:55 PM on Thursday 18 Dec 2014 (Local Time) from KCCU Reporting Station
Broken Clouds Broken Clouds  
Wind Chill:   Ceiling: 500
Heat Index: 16°   Visibility: NA
Dew Point:   Wind: 16mph
Humidity: 73%   Direction: 270°W
Pressure: 30.06"   Gusts: NA
Location:  39.63°N, 106.04°W
Report Text: KCCU 190155Z AUTO 27014KT BKN005 BKN012 BKN037 M09/M13 A3006 RMK AO2 PWINO
Loading
Personal Weather Stations






























Interactive Weather Map New forecast layout! Learn more

10-Day Weather Forecast

Advertisements
Track Severe Weather on mobile